Airfield :
LOGIN :

Register | Disclaimer

   EN    FR    IT 

 










Legend :    VFR   Marginal VFR   IFR   Intensive IFR   Very Intensive IFR
Visi :
Ceiling :
>= 8 km
>= 3000ft
5 to 8 km
1000 to 3000 ft
1500m to 5 km
500 to 1000 ft
800 to 1500m
200 to 500 ft
< 800m
< 200 ft
Symbols :   Thunderstorms  Fog  Heavy snow  Heavy precipitations  Wind > 20 kt
SIGMETs :     Misc.  Thunderstorms  Icing  Turbulence  Mountain Waves  Volcanic Ashes







- Airport Elevation : 364 ft
- IATA code : FRA


EDDF - Frankfurt Int.

CURRENT METAR :
  • 210450Z 32005KT 280V350 9999 FEW045 19/16 Q1018 NOSIG

EXPIRED METARs :
  • 210420Z VRB02KT 9999 FEW043 18/16 Q1017 NOSIG
  • 210350Z 24003KT 180V310 9999 FEW041CB 18/16 Q1017 NOSIG
  • 210320Z 13003KT 080V160 9999 SCT041 18/16 Q1017 NOSIG
  • 210250Z 26003KT 210V330 9999 BKN041 19/16 Q1017 NOSIG
  • 210220Z 03001KT 9999 BKN042 19/16 Q1016 NOSIG

TAF TAF EDDF
Valid from the 21 at 00:00 until the 22 at 06:00 UTC


202300Z 2100/2206 21004KT CAVOK
BECMG 2107/2109 27010KT
BECMG 2118/2120 01004KT
No reported NOTAMs for that airfield.



MET'MAP, your aeronautical weather chart ! - Copyright ORBIFLY December 2007 - Disclaimer

ORBIFLY MET'MAP TEAM :

Programming & Development : Alexandra Zaïnal
Concept & Development : Baudouin d'Aumeries
Co-Development & Prog : Marc-Olivier Méhu
Technical & hardware support : Manuel Goepfert

Contact : metmap@orbifly.com




SOURCES & CREDITS :

   NOAA